createdAt,value
2022-08-22T00:03:36.080Z,19.40
2022-08-22T00:08:21.574Z,19.40
2022-08-22T00:12:45.200Z,19.40
2022-08-22T00:16:56.878Z,19.20
2022-08-22T00:21:20.749Z,19.20
2022-08-22T00:25:50.603Z,19.10
2022-08-22T00:30:08.159Z,19.10
2022-08-22T00:34:26.501Z,19.00
2022-08-22T00:38:38.452Z,19.00
2022-08-22T00:42:56.025Z,18.90
2022-08-22T00:47:24.293Z,18.90
2022-08-22T00:51:42.275Z,18.80
2022-08-22T00:56:09.667Z,18.80
2022-08-22T01:00:27.584Z,18.70
2022-08-22T01:04:42.076Z,18.60
2022-08-22T01:09:25.662Z,18.60
2022-08-22T01:13:55.305Z,18.60
2022-08-22T01:18:18.771Z,18.60
2022-08-22T01:22:46.866Z,18.50
2022-08-22T01:27:27.369Z,18.50
2022-08-22T01:31:59.383Z,18.50
2022-08-22T01:36:30.692Z,18.40
2022-08-22T01:40:54.440Z,18.30
2022-08-22T01:45:09.125Z,18.20
2022-08-22T01:49:26.980Z,18.30
2022-08-22T01:53:41.324Z,18.30
2022-08-22T01:57:59.190Z,18.30
2022-08-22T02:02:38.033Z,18.30
2022-08-22T02:07:06.220Z,18.20
2022-08-22T02:11:17.930Z,18.20
2022-08-22T02:15:32.485Z,18.10
2022-08-22T02:20:00.594Z,18.00
2022-08-22T02:24:21.206Z,18.00
2022-08-22T02:28:56.910Z,18.10
2022-08-22T02:33:07.263Z,18.00
2022-08-22T02:37:42.731Z,18.00
2022-08-22T02:42:00.183Z,18.00
2022-08-22T02:46:38.466Z,18.00
2022-08-22T02:50:50.421Z,17.90
2022-08-22T02:55:06.747Z,17.90
2022-08-22T02:59:36.612Z,17.90
2022-08-22T03:03:47.454Z,17.90
2022-08-22T03:08:12.989Z,17.90
2022-08-22T03:12:36.927Z,17.90
2022-08-22T03:17:06.804Z,17.90
2022-08-22T03:21:21.560Z,17.90
2022-08-22T03:25:42.285Z,17.90
2022-08-22T03:29:55.034Z,17.90
2022-08-22T03:34:23.742Z,17.90
2022-08-22T03:38:35.515Z,17.80
2022-08-22T03:43:08.458Z,17.90
2022-08-22T03:47:28.845Z,17.90
2022-08-22T03:51:55.474Z,17.90
2022-08-22T03:56:19.256Z,17.80
2022-08-22T04:00:36.640Z,17.80
2022-08-22T04:05:15.116Z,17.70
2022-08-22T04:09:40.125Z,17.70
2022-08-22T04:14:09.996Z,17.80
2022-08-22T04:18:33.525Z,17.70
2022-08-22T04:23:00.430Z,17.70
2022-08-22T04:27:15.108Z,17.70
2022-08-22T04:31:27.774Z,17.70
2022-08-22T04:35:56.041Z,17.70
2022-08-22T04:40:28.336Z,17.80
2022-08-22T04:44:45.936Z,17.70
2022-08-22T04:48:57.828Z,17.80
2022-08-22T04:53:09.617Z,17.80
2022-08-22T04:57:37.655Z,17.80
2022-08-22T05:02:08.048Z,17.90
2022-08-22T05:06:19.713Z,17.90
2022-08-22T05:10:33.078Z,17.90
2022-08-22T05:14:47.677Z,18.00
2022-08-22T05:19:05.451Z,18.00
2022-08-22T05:23:23.028Z,18.00
2022-08-22T05:27:34.740Z,18.00
2022-08-22T05:31:52.723Z,18.10
2022-08-22T05:36:07.417Z,18.10
2022-08-22T05:40:19.111Z,18.20
2022-08-22T05:44:34.188Z,18.20
2022-08-22T05:48:45.880Z,18.30
2022-08-22T05:53:15.384Z,18.40
2022-08-22T05:57:29.571Z,18.40
2022-08-22T06:02:02.478Z,18.50
2022-08-22T06:06:14.395Z,18.60
2022-08-22T06:10:29.734Z,18.70
2022-08-22T06:14:56.156Z,18.70
2022-08-22T06:19:19.906Z,18.80
2022-08-22T06:23:20.215Z,18.90
2022-08-22T06:27:31.385Z,18.90
2022-08-22T06:31:49.330Z,19.00
2022-08-22T06:36:30.694Z,19.10
2022-08-22T06:40:41.607Z,19.10
2022-08-22T06:45:05.097Z,19.20
2022-08-22T06:49:14.855Z,19.20
2022-08-22T06:53:29.376Z,19.30
2022-08-22T06:57:41.062Z,19.30
2022-08-22T07:02:23.959Z,19.50
2022-08-22T07:06:38.274Z,19.50
2022-08-22T07:11:02.188Z,19.60
2022-08-22T07:15:14.245Z,19.70
2022-08-22T07:19:34.440Z,19.80
2022-08-22T07:23:47.070Z,19.80
2022-08-22T07:28:22.521Z,19.90
2022-08-22T07:32:37.052Z,19.90
2022-08-22T07:36:51.630Z,19.90
2022-08-22T07:41:18.529Z,20.00
2022-08-22T07:45:33.957Z,20.10
2022-08-22T07:49:57.637Z,20.10
2022-08-22T07:54:09.271Z,20.10
2022-08-22T07:58:19.189Z,20.20
2022-08-22T08:02:29.373Z,20.30
2022-08-22T08:06:38.421Z,20.30
2022-08-22T08:10:49.244Z,20.40
2022-08-22T08:14:58.691Z,20.50
2022-08-22T08:19:10.439Z,20.50
2022-08-22T08:23:23.351Z,20.70
2022-08-22T08:28:09.733Z,20.80
2022-08-22T08:32:19.578Z,20.80
2022-08-22T08:36:51.774Z,20.90
2022-08-22T08:41:03.454Z,21.10
2022-08-22T08:45:23.985Z,21.20
2022-08-22T08:50:01.326Z,21.40
2022-08-22T08:54:30.818Z,21.60
2022-08-22T08:58:43.682Z,21.80
2022-08-22T09:03:07.840Z,22.00
2022-08-22T09:07:41.219Z,22.30
2022-08-22T09:11:58.933Z,22.50
2022-08-22T09:16:13.744Z,22.80
2022-08-22T09:20:27.019Z,22.90
2022-08-22T09:24:41.980Z,23.10
2022-08-22T09:28:56.387Z,23.30
2022-08-22T09:33:28.264Z,23.50
2022-08-22T09:37:58.009Z,23.80
2022-08-22T09:42:18.565Z,24.00
2022-08-22T09:46:34.724Z,24.20
2022-08-22T09:51:13.486Z,24.60
2022-08-22T09:55:34.925Z,24.80
2022-08-22T10:00:10.026Z,25.00
2022-08-22T10:04:25.688Z,25.10
2022-08-22T10:09:31.234Z,25.40
2022-08-22T10:13:45.451Z,25.60
2022-08-22T10:18:12.840Z,25.80
2022-08-22T10:22:42.340Z,25.90
2022-08-22T10:26:55.326Z,26.00
2022-08-22T10:31:23.729Z,25.90
2022-08-22T10:35:53.496Z,26.10
2022-08-22T10:40:19.139Z,26.30
2022-08-22T10:44:47.670Z,26.20
2022-08-22T10:49:00.052Z,26.00
2022-08-22T10:53:29.899Z,25.90
2022-08-22T10:57:52.107Z,25.90
2022-08-22T11:02:23.041Z,26.00
2022-08-22T11:06:38.779Z,26.00
2022-08-22T11:11:07.127Z,25.90
2022-08-22T11:15:34.374Z,25.70
2022-08-22T11:19:43.459Z,25.70
2022-08-22T11:24:34.779Z,25.60
2022-08-22T11:29:14.125Z,25.80
2022-08-22T11:33:30.761Z,25.90
2022-08-22T11:37:45.502Z,25.90
2022-08-22T11:42:23.682Z,25.90
2022-08-22T11:46:41.243Z,26.00
2022-08-22T11:50:52.854Z,26.00
2022-08-22T11:55:07.075Z,26.00
2022-08-22T11:59:43.139Z,26.30
2022-08-22T12:04:06.730Z,26.50
2022-08-22T12:08:26.958Z,26.60
2022-08-22T12:13:07.088Z,26.80
2022-08-22T12:17:55.064Z,26.80
2022-08-22T12:21:49.941Z,26.70
2022-08-22T12:26:03.495Z,26.70
2022-08-22T12:30:33.522Z,26.70
2022-08-22T12:35:13.867Z,26.90
2022-08-22T12:39:34.828Z,27.10
2022-08-22T12:43:49.748Z,27.40
2022-08-22T12:48:01.564Z,27.50
2022-08-22T12:52:22.248Z,27.50
2022-08-22T12:57:04.358Z,27.60
2022-08-22T13:01:16.470Z,27.90
2022-08-22T13:05:28.775Z,28.20
2022-08-22T13:09:43.289Z,28.30
2022-08-22T13:13:56.523Z,28.30
2022-08-22T13:18:29.500Z,28.30
2022-08-22T13:22:24.548Z,28.30
2022-08-22T13:26:37.665Z,28.20
2022-08-22T13:30:46.396Z,28.30
2022-08-22T13:34:58.598Z,28.50
2022-08-22T13:39:16.469Z,28.50
2022-08-22T13:43:30.246Z,28.60
2022-08-22T13:47:41.858Z,28.60
2022-08-22T13:51:54.756Z,28.50
2022-08-22T13:56:15.487Z,28.30
2022-08-22T14:00:57.930Z,28.20
2022-08-22T14:05:18.764Z,28.00
2022-08-22T14:09:45.324Z,28.10
2022-08-22T14:14:04.272Z,28.20
2022-08-22T14:18:18.498Z,28.20
2022-08-22T14:22:31.886Z,28.20
2022-08-22T14:26:47.382Z,28.50
2022-08-22T14:31:00.959Z,28.70
2022-08-22T14:35:25.504Z,28.90
2022-08-22T14:39:36.106Z,28.90
2022-08-22T14:43:50.769Z,29.00
2022-08-22T14:48:29.841Z,29.10
2022-08-22T14:52:33.468Z,29.00
2022-08-22T14:56:43.699Z,28.80
2022-08-22T15:00:54.262Z,28.60
2022-08-22T15:05:15.128Z,28.30
2022-08-22T15:09:42.645Z,28.10
2022-08-22T15:13:57.194Z,28.00
2022-08-22T15:18:17.989Z,27.90
2022-08-22T15:22:46.778Z,27.70
2022-08-22T15:26:57.803Z,27.70
2022-08-22T15:31:09.503Z,27.80
2022-08-22T15:35:30.951Z,27.60
2022-08-22T15:40:03.048Z,27.60
2022-08-22T15:44:32.658Z,27.50
2022-08-22T15:48:40.423Z,27.60
2022-08-22T15:53:11.322Z,27.60
2022-08-22T15:57:40.637Z,27.50
2022-08-22T16:01:52.607Z,27.30
2022-08-22T16:06:08.110Z,27.20
2022-08-22T16:10:28.579Z,27.20
2022-08-22T16:14:40.205Z,27.20
2022-08-22T16:18:51.893Z,27.20
2022-08-22T16:23:03.623Z,27.10
2022-08-22T16:27:23.941Z,27.10
2022-08-22T16:31:35.636Z,27.40
2022-08-22T16:36:19.496Z,27.40
2022-08-22T16:40:28.680Z,27.20
2022-08-22T16:44:48.777Z,27.00
2022-08-22T16:49:02.303Z,26.80
2022-08-22T16:53:23.300Z,26.70
2022-08-22T16:57:59.580Z,26.70
2022-08-22T17:02:17.934Z,26.70
2022-08-22T17:06:45.886Z,26.80
2022-08-22T17:10:57.568Z,26.80
2022-08-22T17:15:27.964Z,26.80
2022-08-22T17:19:45.383Z,26.80
2022-08-22T17:23:57.937Z,26.80
2022-08-22T17:28:09.718Z,26.80
2022-08-22T17:32:23.339Z,26.80
2022-08-22T17:36:53.137Z,26.70
2022-08-22T17:41:08.030Z,26.50
2022-08-22T17:50:15.322Z,26.30
2022-08-22T17:54:51.201Z,26.00
2022-08-22T17:59:02.962Z,26.00
2022-08-22T18:03:32.015Z,25.90
2022-08-22T18:08:07.808Z,25.80
2022-08-22T18:12:31.164Z,25.70
2022-08-22T18:16:50.559Z,25.60
2022-08-22T18:21:12.055Z,25.50
2022-08-22T18:25:23.859Z,25.50
2022-08-22T18:29:44.259Z,25.40
2022-08-22T18:33:58.943Z,25.30
2022-08-22T18:38:29.433Z,25.40
2022-08-22T18:42:46.658Z,25.30
2022-08-22T18:47:00.829Z,25.20
2022-08-22T18:51:28.280Z,25.10
2022-08-22T18:55:51.935Z,25.10
2022-08-22T19:00:24.970Z,25.00
2022-08-22T19:04:40.268Z,24.90
2022-08-22T19:08:57.594Z,24.80
2022-08-22T19:13:43.318Z,24.70
2022-08-22T19:17:58.690Z,24.60
2022-08-22T19:22:23.544Z,24.50
2022-08-22T19:26:48.138Z,24.40
2022-08-22T19:31:23.225Z,24.30
2022-08-22T19:35:41.096Z,24.30
2022-08-22T19:39:55.946Z,24.20
2022-08-22T19:44:04.869Z,24.20
2022-08-22T19:48:14.573Z,24.20
2022-08-22T19:52:29.285Z,24.10
2022-08-22T19:57:09.874Z,24.00
2022-08-22T20:01:38.596Z,24.00
2022-08-22T20:06:22.150Z,23.90
2022-08-22T20:10:54.041Z,23.90
2022-08-22T20:15:14.622Z,23.90
2022-08-22T20:19:23.643Z,23.80
2022-08-22T20:23:33.319Z,23.80
2022-08-22T20:27:51.088Z,23.80
2022-08-22T20:32:00.532Z,23.80
2022-08-22T20:36:24.240Z,23.70
2022-08-22T20:40:56.412Z,23.70
2022-08-22T20:44:54.061Z,23.70
2022-08-22T20:49:26.600Z,23.70
2022-08-22T20:53:36.440Z,23.70
2022-08-22T20:57:48.251Z,23.70
2022-08-22T21:02:15.209Z,23.60
2022-08-22T21:06:34.472Z,23.60
2022-08-22T21:11:01.378Z,23.50
2022-08-22T21:15:10.520Z,23.50
2022-08-22T21:19:21.640Z,23.50
2022-08-22T21:23:30.711Z,23.50
2022-08-22T21:27:39.578Z,23.40
2022-08-22T21:32:04.501Z,23.40
2022-08-22T21:36:13.977Z,23.30
2022-08-22T21:40:34.084Z,23.30
2022-08-22T21:44:48.501Z,23.30
2022-08-22T21:49:00.133Z,23.20
2022-08-22T21:53:14.061Z,23.10
2022-08-22T21:57:25.436Z,23.10
2022-08-22T22:01:34.514Z,23.20
2022-08-22T22:05:43.553Z,23.10
2022-08-22T22:09:54.885Z,23.10
2022-08-22T22:14:02.798Z,23.00
2022-08-22T22:18:17.479Z,23.00
2022-08-22T22:22:27.842Z,23.00
2022-08-22T22:26:36.463Z,22.90
2022-08-22T22:30:48.036Z,22.90
2022-08-22T22:34:56.638Z,22.90
2022-08-22T22:39:06.737Z,22.80
2022-08-22T22:43:15.620Z,22.80
2022-08-22T22:47:29.520Z,22.80
2022-08-22T22:51:38.155Z,22.80
2022-08-22T22:55:48.074Z,22.80
2022-08-22T22:59:58.290Z,22.70
2022-08-22T23:04:07.014Z,22.70
2022-08-22T23:08:15.636Z,22.60
2022-08-22T23:12:26.070Z,22.50
2022-08-22T23:16:37.308Z,22.50
2022-08-22T23:20:45.061Z,22.50
2022-08-22T23:24:53.861Z,22.40
2022-08-22T23:29:02.545Z,22.40
2022-08-22T23:33:11.443Z,22.30
2022-08-22T23:37:22.107Z,22.20
2022-08-22T23:41:50.214Z,22.20
2022-08-22T23:45:58.821Z,22.10
2022-08-22T23:50:07.571Z,22.00
2022-08-22T23:54:17.565Z,22.00
2022-08-22T23:58:26.252Z,21.90
